createdAt,value
2017-05-29T00:00:03.167Z,52.70
2017-05-29T00:02:31.935Z,52.00
2017-05-29T00:05:00.742Z,51.90
2017-05-29T00:07:29.507Z,51.80
2017-05-29T00:09:58.274Z,51.80
2017-05-29T00:12:27.071Z,51.50
2017-05-29T00:14:55.855Z,52.00
2017-05-29T00:17:24.626Z,51.30
2017-05-29T00:19:54.375Z,51.60
2017-05-29T00:22:23.143Z,52.30
2017-05-29T00:24:51.920Z,53.00
2017-05-29T00:27:20.710Z,52.20
2017-05-29T00:29:49.491Z,52.40
2017-05-29T00:32:18.262Z,52.40
2017-05-29T00:34:47.054Z,53.00
2017-05-29T00:37:15.826Z,52.90
2017-05-29T00:39:44.611Z,53.20
2017-05-29T00:42:14.398Z,53.70
2017-05-29T00:44:43.175Z,53.40
2017-05-29T00:47:11.950Z,52.50
2017-05-29T00:49:40.727Z,52.70
2017-05-29T00:52:09.570Z,53.00
2017-05-29T00:54:38.330Z,53.70
2017-05-29T00:57:08.138Z,53.70
2017-05-29T00:59:36.138Z,53.70
2017-05-29T01:02:06.838Z,53.40
2017-05-29T01:04:35.738Z,53.60
2017-05-29T01:07:04.474Z,53.60
2017-05-29T01:09:33.258Z,53.40
2017-05-29T01:12:01.282Z,53.30
2017-05-29T01:14:30.058Z,53.40
2017-05-29T01:16:58.833Z,54.00
2017-05-29T01:19:27.650Z,53.10
2017-05-29T01:21:56.426Z,53.40
2017-05-29T01:24:25.206Z,53.40
2017-05-29T01:26:53.985Z,54.10
2017-05-29T01:29:22.765Z,54.10
2017-05-29T01:31:52.473Z,53.80
2017-05-29T01:34:21.282Z,54.30
2017-05-29T01:36:50.054Z,54.00
2017-05-29T01:39:19.742Z,54.30
2017-05-29T01:41:48.553Z,53.90
2017-05-29T01:44:17.323Z,54.20
2017-05-29T01:46:46.110Z,54.60
2017-05-29T01:49:14.905Z,54.70
2017-05-29T01:51:43.681Z,55.10
2017-05-29T01:54:12.453Z,55.70
2017-05-29T01:56:42.229Z,55.20
2017-05-29T01:59:10.993Z,54.90
2017-05-29T02:01:41.735Z,54.50
2017-05-29T02:04:10.525Z,53.70
2017-05-29T02:06:39.293Z,53.00
2017-05-29T02:09:09.021Z,52.80
2017-05-29T02:11:37.789Z,53.70
2017-05-29T02:14:06.568Z,54.30
2017-05-29T02:16:36.317Z,54.40
2017-05-29T02:19:05.109Z,54.70
2017-05-29T02:21:33.923Z,54.80
2017-05-29T02:24:02.705Z,54.50
2017-05-29T02:26:31.533Z,54.40
2017-05-29T02:29:02.292Z,54.30
2017-05-29T02:31:31.069Z,53.50
2017-05-29T02:33:59.845Z,54.30
2017-05-29T02:36:29.581Z,53.80
2017-05-29T02:38:58.437Z,53.60
2017-05-29T02:41:27.285Z,54.00
2017-05-29T02:43:56.061Z,54.10
2017-05-29T02:46:24.833Z,54.10
2017-05-29T02:48:53.617Z,54.40
2017-05-29T02:51:22.448Z,54.00
2017-05-29T02:53:51.469Z,54.00
2017-05-29T02:56:20.256Z,55.50
2017-05-29T02:58:49.085Z,55.70
2017-05-29T03:01:17.869Z,56.20
2017-05-29T03:03:46.664Z,56.40
2017-05-29T03:06:20.144Z,55.50
2017-05-29T03:08:48.921Z,55.50
2017-05-29T03:11:17.693Z,55.50
2017-05-29T03:13:46.513Z,55.40
2017-05-29T03:16:17.208Z,56.20
2017-05-29T03:18:52.620Z,56.40
2017-05-29T03:21:22.364Z,56.60
2017-05-29T03:23:51.152Z,56.60
2017-05-29T03:26:23.948Z,55.20
2017-05-29T03:29:05.256Z,54.80
2017-05-29T03:31:37.728Z,55.70
2017-05-29T03:34:06.511Z,55.90
2017-05-29T03:36:35.291Z,56.10
2017-05-29T03:39:06.038Z,56.30
2017-05-29T03:41:34.813Z,56.70
2017-05-29T03:44:08.412Z,57.20
2017-05-29T03:46:37.193Z,57.40
2017-05-29T03:49:12.596Z,58.00
2017-05-29T03:51:50.512Z,57.90
2017-05-29T03:54:21.721Z,57.80
2017-05-29T03:56:53.841Z,57.10
2017-05-29T03:59:26.628Z,57.50
2017-05-29T04:01:55.404Z,57.50
2017-05-29T04:04:26.368Z,58.00
2017-05-29T04:06:56.399Z,58.10
2017-05-29T04:09:25.312Z,58.30
2017-05-29T04:11:54.208Z,57.90
2017-05-29T04:14:23.663Z,57.90
2017-05-29T04:16:53.375Z,58.60
2017-05-29T04:19:24.108Z,59.10
2017-05-29T04:21:54.943Z,58.80
2017-05-29T04:24:23.724Z,58.30
2017-05-29T04:26:52.495Z,57.80
2017-05-29T04:29:21.307Z,57.40
2017-05-29T04:31:51.096Z,57.50
2017-05-29T04:34:20.831Z,57.60
2017-05-29T04:36:49.767Z,58.20
2017-05-29T04:39:22.168Z,59.90
2017-05-29T04:41:54.807Z,58.10
2017-05-29T04:44:23.612Z,58.00
2017-05-29T04:46:52.391Z,57.90
2017-05-29T04:49:22.127Z,57.60
2017-05-29T04:51:50.919Z,58.10
2017-05-29T04:54:19.696Z,58.60
2017-05-29T04:56:48.478Z,58.80
2017-05-29T04:59:20.867Z,59.20
2017-05-29T05:01:49.639Z,59.30
2017-05-29T05:04:18.416Z,58.50
2017-05-29T05:06:48.150Z,58.30
2017-05-29T05:09:21.839Z,59.30
2017-05-29T05:11:54.559Z,60.60
2017-05-29T05:14:24.351Z,60.30
2017-05-29T05:16:53.119Z,61.20
2017-05-29T05:19:27.721Z,62.90
2017-05-29T05:21:57.455Z,63.90
2017-05-29T05:24:30.247Z,63.50
2017-05-29T05:27:03.106Z,63.40
2017-05-29T05:29:31.935Z,63.60
2017-05-29T05:32:01.627Z,63.40
2017-05-29T05:34:30.395Z,62.30
2017-05-29T05:37:00.155Z,62.10
2017-05-29T05:39:29.962Z,60.80
2017-05-29T05:42:00.785Z,62.00
2017-05-29T05:44:31.082Z,63.30
2017-05-29T05:47:00.967Z,62.50
2017-05-29T05:49:51.558Z,60.40
2017-05-29T05:52:32.986Z,61.00
2017-05-29T05:55:01.783Z,58.20
2017-05-29T05:57:30.576Z,57.40
2017-05-29T05:59:59.340Z,58.00
2017-05-29T06:02:32.999Z,58.60
2017-05-29T06:05:04.802Z,58.10
2017-05-29T06:07:36.554Z,57.60
2017-05-29T06:10:07.234Z,55.90
2017-05-29T06:12:35.995Z,57.30
2017-05-29T06:15:04.758Z,53.20
2017-05-29T06:17:33.529Z,52.70
2017-05-29T06:20:04.279Z,52.30
2017-05-29T06:22:34.022Z,52.50
2017-05-29T06:25:15.210Z,52.40
2017-05-29T06:28:01.106Z,52.70
2017-05-29T06:30:42.097Z,52.20
2017-05-29T06:33:10.895Z,52.30
2017-05-29T06:35:39.662Z,51.10
2017-05-29T06:38:08.431Z,51.90
2017-05-29T06:40:37.218Z,51.40
2017-05-29T06:43:05.985Z,51.70
2017-05-29T06:45:34.749Z,52.00
2017-05-29T06:48:03.534Z,52.10
2017-05-29T06:50:33.177Z,51.60
2017-05-29T06:53:01.982Z,50.90
2017-05-29T06:55:30.750Z,50.60
2017-05-29T06:57:59.509Z,50.60
2017-05-29T07:00:28.285Z,50.30
2017-05-29T07:02:57.062Z,49.90
2017-05-29T07:05:25.845Z,49.50
2017-05-29T07:07:54.605Z,50.50
2017-05-29T07:10:23.393Z,50.30
2017-05-29T07:12:52.165Z,49.60
2017-05-29T07:15:20.965Z,49.90
2017-05-29T07:17:49.729Z,50.40
2017-05-29T07:20:18.497Z,50.40
2017-05-29T07:22:47.261Z,49.70
2017-05-29T07:25:16.036Z,50.40
2017-05-29T07:27:44.801Z,50.00
2017-05-29T07:30:13.566Z,49.80
2017-05-29T07:32:42.417Z,48.30
2017-05-29T07:35:11.160Z,48.50
2017-05-29T07:37:39.924Z,48.30
2017-05-29T07:40:08.697Z,48.90
2017-05-29T07:42:37.461Z,48.60
2017-05-29T07:45:06.224Z,48.40
2017-05-29T07:47:35.029Z,48.20
2017-05-29T07:50:03.789Z,46.70
2017-05-29T07:52:32.565Z,46.50
2017-05-29T07:55:01.356Z,47.00
2017-05-29T07:57:30.124Z,48.00
2017-05-29T07:59:58.897Z,45.60
2017-05-29T08:02:27.672Z,45.40
2017-05-29T08:04:56.444Z,45.60
2017-05-29T08:07:25.213Z,44.70
2017-05-29T08:09:54.000Z,44.60
2017-05-29T08:12:22.764Z,44.00
2017-05-29T08:14:51.533Z,44.40
2017-05-29T08:17:20.328Z,44.70
2017-05-29T08:19:49.093Z,44.10
2017-05-29T08:22:17.864Z,43.80
2017-05-29T08:24:46.664Z,42.70
2017-05-29T08:27:15.432Z,43.70
2017-05-29T08:29:44.212Z,42.70
2017-05-29T08:32:12.996Z,42.30
2017-05-29T08:34:41.768Z,42.80
2017-05-29T08:37:10.536Z,42.50
2017-05-29T08:39:39.336Z,42.20
2017-05-29T08:42:08.112Z,43.90
2017-05-29T08:44:36.876Z,42.70
2017-05-29T08:47:05.652Z,42.00
2017-05-29T08:49:34.420Z,41.80
2017-05-29T08:52:03.184Z,43.10
2017-05-29T08:54:31.980Z,42.30
2017-05-29T08:57:00.749Z,39.00
2017-05-29T08:59:29.511Z,41.70
2017-05-29T09:01:58.288Z,38.50
2017-05-29T09:04:27.107Z,39.20
2017-05-29T09:06:56.784Z,39.10
2017-05-29T09:09:25.824Z,37.80
2017-05-29T09:11:54.588Z,37.50
2017-05-29T09:14:23.356Z,38.60
2017-05-29T09:16:52.132Z,37.40
2017-05-29T09:19:20.896Z,37.90
2017-05-29T09:21:49.660Z,37.50
2017-05-29T09:24:18.436Z,38.40
2017-05-29T09:26:47.207Z,38.00
2017-05-29T09:29:15.975Z,38.20
2017-05-29T09:31:44.748Z,36.50
2017-05-29T09:34:13.520Z,37.60
2017-05-29T09:36:42.376Z,36.60
2017-05-29T09:39:11.139Z,36.40
2017-05-29T09:41:39.907Z,35.30
2017-05-29T09:44:08.676Z,36.10
2017-05-29T09:46:37.468Z,36.50
2017-05-29T09:49:06.231Z,38.70
2017-05-29T09:51:34.999Z,38.40
2017-05-29T09:54:03.807Z,36.60
2017-05-29T09:56:32.580Z,36.00
2017-05-29T09:59:01.348Z,36.10
2017-05-29T10:01:30.128Z,34.90
2017-05-29T10:03:58.903Z,35.70
2017-05-29T10:06:27.664Z,35.60
2017-05-29T10:08:56.468Z,35.50
2017-05-29T10:11:25.239Z,35.30
2017-05-29T10:13:54.014Z,35.40
2017-05-29T10:16:22.789Z,34.60
2017-05-29T10:18:51.551Z,35.20
2017-05-29T10:21:21.531Z,35.20
2017-05-29T10:23:50.311Z,35.30
2017-05-29T10:26:19.071Z,34.30
2017-05-29T10:28:47.839Z,34.30
2017-05-29T10:31:16.623Z,34.90
2017-05-29T10:33:45.394Z,34.40
2017-05-29T10:36:14.151Z,33.60
2017-05-29T10:38:42.991Z,34.40
2017-05-29T10:41:11.755Z,35.10
2017-05-29T10:43:40.519Z,35.00
2017-05-29T10:46:09.319Z,35.30
2017-05-29T10:48:38.087Z,35.10
2017-05-29T10:51:06.851Z,36.60
2017-05-29T10:53:35.643Z,33.60
2017-05-29T10:56:04.406Z,34.30
2017-05-29T10:58:33.167Z,34.80
2017-05-29T11:01:01.959Z,35.60
2017-05-29T11:03:30.723Z,34.80
2017-05-29T11:05:59.490Z,35.30
2017-05-29T11:08:28.278Z,34.50
2017-05-29T11:10:57.047Z,35.00
2017-05-29T11:13:25.811Z,33.50
2017-05-29T11:15:54.603Z,34.20
2017-05-29T11:18:23.374Z,34.60
2017-05-29T11:20:52.138Z,33.40
2017-05-29T11:23:20.923Z,33.90
2017-05-29T11:25:49.687Z,34.40
2017-05-29T11:28:18.451Z,35.00
2017-05-29T11:30:47.242Z,35.10
2017-05-29T11:33:16.012Z,35.70
2017-05-29T11:35:44.775Z,35.50
2017-05-29T11:38:17.230Z,34.60
2017-05-29T11:40:50.967Z,36.90
2017-05-29T11:43:20.270Z,36.90
2017-05-29T11:45:49.043Z,36.30
2017-05-29T11:48:17.802Z,36.40
2017-05-29T11:50:46.598Z,35.50
2017-05-29T11:53:15.370Z,36.20
2017-05-29T11:55:44.138Z,34.90
2017-05-29T11:58:12.922Z,34.10
2017-05-29T12:00:41.686Z,34.30
2017-05-29T12:03:10.454Z,34.70
2017-05-29T12:05:39.247Z,34.20
2017-05-29T12:08:08.018Z,34.10
2017-05-29T12:10:36.782Z,34.60
2017-05-29T12:13:05.570Z,34.60
2017-05-29T12:15:34.338Z,35.10
2017-05-29T12:18:03.106Z,35.40
2017-05-29T12:20:31.878Z,34.60
2017-05-29T12:23:00.647Z,33.30
2017-05-29T12:25:29.411Z,33.40
2017-05-29T12:27:58.243Z,33.60
2017-05-29T12:30:26.970Z,32.70
2017-05-29T12:32:55.744Z,33.30
2017-05-29T12:35:24.527Z,32.60
2017-05-29T12:37:53.290Z,32.50
2017-05-29T12:40:22.065Z,34.20
2017-05-29T12:42:50.834Z,33.70
2017-05-29T12:45:20.734Z,33.60
2017-05-29T12:47:48.731Z,33.60
2017-05-29T12:50:17.521Z,30.80
2017-05-29T12:52:46.285Z,30.70
2017-05-29T12:55:15.049Z,31.00
2017-05-29T12:57:43.845Z,31.70
2017-05-29T13:00:12.605Z,31.20
2017-05-29T13:02:41.370Z,30.80
2017-05-29T13:05:10.170Z,31.90
2017-05-29T13:07:38.933Z,32.40
2017-05-29T13:10:07.698Z,32.20
2017-05-29T13:12:36.505Z,31.50
2017-05-29T13:15:05.266Z,31.80
2017-05-29T13:17:34.031Z,31.90
2017-05-29T13:20:02.821Z,32.80
2017-05-29T13:22:31.593Z,32.20
2017-05-29T13:25:00.357Z,32.10
2017-05-29T13:27:29.133Z,32.20
2017-05-29T13:29:58.202Z,32.40
2017-05-29T13:32:26.976Z,31.30
2017-05-29T13:34:55.761Z,31.80
2017-05-29T13:37:24.539Z,31.50
2017-05-29T13:39:53.305Z,33.40
2017-05-29T13:42:22.092Z,31.90
2017-05-29T13:44:50.864Z,32.20
2017-05-29T13:47:19.629Z,33.40
2017-05-29T13:49:48.412Z,32.70
2017-05-29T13:52:17.188Z,33.20
2017-05-29T13:54:45.961Z,33.70
2017-05-29T13:57:14.740Z,33.10
2017-05-29T13:59:43.524Z,32.60
2017-05-29T14:02:12.293Z,33.70
2017-05-29T14:04:41.072Z,33.00
2017-05-29T14:07:09.848Z,32.70
2017-05-29T14:09:39.620Z,33.10
2017-05-29T14:12:08.408Z,32.90
2017-05-29T14:14:37.172Z,32.40
2017-05-29T14:17:05.941Z,33.20
2017-05-29T14:19:34.812Z,33.50
2017-05-29T14:22:03.536Z,33.60
2017-05-29T14:24:32.300Z,33.50
2017-05-29T14:27:01.104Z,33.50
2017-05-29T14:29:29.868Z,33.10
2017-05-29T14:31:58.632Z,33.50
2017-05-29T14:34:27.408Z,32.40
2017-05-29T14:36:56.172Z,33.30
2017-05-29T14:39:24.944Z,34.10
2017-05-29T14:41:57.836Z,35.60
2017-05-29T14:44:27.780Z,33.50
2017-05-29T14:46:56.652Z,34.50
2017-05-29T14:49:25.483Z,34.60
2017-05-29T14:51:54.208Z,34.20
2017-05-29T14:54:22.999Z,34.30
2017-05-29T14:56:51.771Z,34.80
2017-05-29T14:59:20.536Z,35.20
2017-05-29T15:01:49.316Z,35.10
2017-05-29T15:04:18.075Z,35.00
2017-05-29T15:06:46.836Z,35.50
2017-05-29T15:09:15.612Z,36.30
2017-05-29T15:11:44.383Z,36.60
2017-05-29T15:14:13.260Z,37.10
2017-05-29T15:16:42.020Z,37.90
2017-05-29T15:19:10.788Z,38.70
2017-05-29T15:21:39.547Z,39.10
2017-05-29T15:24:08.335Z,40.10
2017-05-29T15:26:37.108Z,39.90
2017-05-29T15:29:05.871Z,40.70
2017-05-29T15:31:34.648Z,40.50
2017-05-29T15:34:03.420Z,40.10
2017-05-29T15:36:32.187Z,39.70
2017-05-29T15:39:00.999Z,39.30
2017-05-29T15:41:29.768Z,39.50
2017-05-29T15:43:58.531Z,39.80
2017-05-29T15:46:27.300Z,40.60
2017-05-29T15:51:34.167Z,40.30
2017-05-29T15:54:02.926Z,40.70
2017-05-29T15:56:31.691Z,41.00
2017-05-29T15:59:00.499Z,41.10
2017-05-29T16:01:29.263Z,41.10
2017-05-29T16:03:58.032Z,41.00
2017-05-29T16:06:26.814Z,40.90
2017-05-29T16:08:55.598Z,41.30
2017-05-29T16:11:24.367Z,42.10
2017-05-29T16:13:54.042Z,42.10
2017-05-29T16:16:22.810Z,42.80
2017-05-29T16:18:51.578Z,43.00
2017-05-29T16:21:23.586Z,43.40
2017-05-29T16:23:52.346Z,43.20
2017-05-29T16:26:25.879Z,43.90
2017-05-29T16:28:55.579Z,43.50
2017-05-29T16:31:26.323Z,43.80
2017-05-29T16:33:57.043Z,48.30
2017-05-29T16:36:25.827Z,47.20
2017-05-29T16:38:56.562Z,45.80
2017-05-29T16:41:25.339Z,45.30
2017-05-29T16:43:54.110Z,44.80
2017-05-29T16:46:22.878Z,43.70
2017-05-29T16:48:52.635Z,43.50
2017-05-29T16:51:24.510Z,43.70
2017-05-29T16:53:55.178Z,45.80
2017-05-29T16:56:26.919Z,46.10
2017-05-29T16:58:55.682Z,45.80
2017-05-29T17:01:24.443Z,45.30
2017-05-29T17:03:53.216Z,45.10
2017-05-29T17:06:21.986Z,45.60
2017-05-29T17:08:51.751Z,45.20
2017-05-29T17:11:20.528Z,45.10
2017-05-29T17:13:49.475Z,45.10
2017-05-29T17:16:21.250Z,46.40
2017-05-29T17:18:58.362Z,47.00
2017-05-29T17:21:42.042Z,47.10
2017-05-29T17:24:16.570Z,47.70
2017-05-29T17:26:50.310Z,48.20
2017-05-29T17:29:27.546Z,48.70
2017-05-29T17:32:08.494Z,48.90
2017-05-29T17:34:57.040Z,49.10
2017-05-29T17:52:59.602Z,57.00
2017-05-29T17:55:28.369Z,51.70
2017-05-29T17:57:57.129Z,51.20
2017-05-29T18:00:25.902Z,50.80
2017-05-29T18:02:54.673Z,51.40
2017-05-29T18:05:23.434Z,52.20
2017-05-29T18:07:52.242Z,53.20
2017-05-29T18:10:21.010Z,55.10
2017-05-29T18:12:49.765Z,56.50
2017-05-29T18:15:18.534Z,58.10
2017-05-29T18:17:47.306Z,57.90
2017-05-29T18:20:16.259Z,56.10
2017-05-29T18:22:45.177Z,55.60
2017-05-29T18:25:13.934Z,55.90
2017-05-29T18:27:42.765Z,56.10
2017-05-29T18:30:11.497Z,55.50
2017-05-29T18:32:40.261Z,57.30
2017-05-29T18:35:09.030Z,58.20
2017-05-29T18:37:37.798Z,58.60
2017-05-29T18:40:07.015Z,59.10
2017-05-29T18:42:36.025Z,58.90
2017-05-29T18:45:04.777Z,59.60
2017-05-29T18:47:33.541Z,60.90
2017-05-29T18:50:02.377Z,62.10
2017-05-29T18:52:31.174Z,62.20
2017-05-29T18:54:59.942Z,60.30
2017-05-29T18:57:28.710Z,61.80
2017-05-29T18:59:57.481Z,62.70
2017-05-29T19:02:26.257Z,62.20
2017-05-29T19:04:55.026Z,60.00
2017-05-29T19:07:23.802Z,57.80
2017-05-29T19:09:52.565Z,56.70
2017-05-29T19:12:21.325Z,55.70
2017-05-29T19:14:50.101Z,55.50
2017-05-29T19:17:18.893Z,54.90
2017-05-29T19:19:47.685Z,53.90
2017-05-29T19:22:16.461Z,53.70
2017-05-29T19:24:45.225Z,53.80
2017-05-29T19:27:13.987Z,53.90
2017-05-29T19:29:44.304Z,53.80
2017-05-29T19:32:13.073Z,54.00
2017-05-29T19:34:42.749Z,55.40
2017-05-29T19:37:11.545Z,56.20
2017-05-29T19:39:40.313Z,56.40
2017-05-29T19:42:09.286Z,56.20
2017-05-29T19:44:42.609Z,56.10
2017-05-29T19:47:13.809Z,56.10
2017-05-29T19:49:42.604Z,56.10
2017-05-29T19:52:11.461Z,56.70
2017-05-29T19:54:40.229Z,56.70
2017-05-29T19:57:09.028Z,56.90
2017-05-29T19:59:37.803Z,57.10
2017-05-29T20:02:06.581Z,56.50
2017-05-29T20:04:35.412Z,56.20
2017-05-29T20:07:04.213Z,56.80
2017-05-29T20:09:32.988Z,57.50
2017-05-29T20:12:01.777Z,56.90
2017-05-29T20:14:37.689Z,57.00
2017-05-29T20:17:18.693Z,57.20
2017-05-29T20:19:47.449Z,57.40
2017-05-29T20:22:24.240Z,56.70
2017-05-29T20:25:04.197Z,58.20
2017-05-29T20:27:36.587Z,59.90
2017-05-29T20:30:10.352Z,60.80
2017-05-29T20:32:39.184Z,61.50
2017-05-29T20:35:07.981Z,59.90
2017-05-29T20:37:36.748Z,60.00
2017-05-29T20:40:05.525Z,61.90
2017-05-29T20:42:47.628Z,62.60
2017-05-29T20:51:19.753Z,64.60
2017-05-29T20:53:48.563Z,64.80
2017-05-29T20:56:22.048Z,65.10
2017-05-29T20:58:50.840Z,65.20
2017-05-29T21:01:19.647Z,65.00
2017-05-29T21:03:49.248Z,64.60
2017-05-29T21:06:18.040Z,65.10
2017-05-29T21:08:46.807Z,64.50
2017-05-29T21:11:16.495Z,64.30
2017-05-29T21:13:45.296Z,64.00
2017-05-29T21:16:14.108Z,67.50
2017-05-29T21:18:42.923Z,68.90
2017-05-29T21:21:11.708Z,68.40
2017-05-29T21:23:47.624Z,68.20
2017-05-29T21:29:12.311Z,67.20
2017-05-29T21:31:56.339Z,68.50
2017-05-29T21:34:26.043Z,68.90
2017-05-29T21:36:54.843Z,69.50
2017-05-29T21:39:23.623Z,70.00
2017-05-29T21:42:04.140Z,70.00
2017-05-29T21:44:34.807Z,71.10
2017-05-29T21:47:04.491Z,72.20
2017-05-29T21:49:35.264Z,72.50
2017-05-29T21:52:04.067Z,72.20
2017-05-29T21:54:32.895Z,69.80
2017-05-29T21:57:02.686Z,68.20
2017-05-29T21:59:33.498Z,68.90
2017-05-29T22:02:08.471Z,68.70
2017-05-29T22:04:42.415Z,67.60
2017-05-29T22:07:14.071Z,68.40
2017-05-29T22:09:43.795Z,70.70
2017-05-29T22:12:12.563Z,69.00
2017-05-29T22:14:42.292Z,69.20
2017-05-29T22:17:10.333Z,69.20
2017-05-29T22:19:39.116Z,66.10
2017-05-29T22:22:11.227Z,65.10
2017-05-29T22:24:39.991Z,65.20
2017-05-29T22:27:09.682Z,64.90
2017-05-29T22:29:38.455Z,64.80
2017-05-29T22:32:08.187Z,64.50
2017-05-29T22:34:42.743Z,65.90
2017-05-29T22:37:12.540Z,68.00
2017-05-29T22:39:41.327Z,68.70
2017-05-29T22:42:16.541Z,66.90
2017-05-29T22:44:46.253Z,66.20
2017-05-29T22:47:20.924Z,65.90
2017-05-29T22:49:51.635Z,64.80
2017-05-29T22:52:21.330Z,64.20
2017-05-29T22:54:53.243Z,63.70
2017-05-29T22:57:24.054Z,63.60
2017-05-29T22:59:54.035Z,63.50
2017-05-29T23:02:22.839Z,62.50
2017-05-29T23:05:02.790Z,62.70
2017-05-29T23:07:36.890Z,61.90
2017-05-29T23:10:14.251Z,61.10
2017-05-29T23:12:49.033Z,61.20
2017-05-29T23:15:18.714Z,61.60
2017-05-29T23:17:47.510Z,62.30
2017-05-29T23:20:19.595Z,63.50
2017-05-29T23:22:51.326Z,62.80
2017-05-29T23:25:20.130Z,65.20
2017-05-29T23:27:49.826Z,65.70
2017-05-29T23:30:18.589Z,65.30
2017-05-29T23:32:48.322Z,64.40
2017-05-29T23:35:18.038Z,64.60
2017-05-29T23:37:47.753Z,65.50
2017-05-29T23:40:17.817Z,65.50
2017-05-29T23:43:01.533Z,64.80
2017-05-29T23:45:31.318Z,65.00
2017-05-29T23:48:01.025Z,64.80
2017-05-29T23:50:29.797Z,63.40
2017-05-29T23:52:58.614Z,62.60
2017-05-29T23:55:28.297Z,62.40
2017-05-29T23:57:58.041Z,63.20
